sensor_id;sensor_type;location;lat;lon;timestamp;temperature;humidity
38239;DHT22;24035;48.900;9.188;2023-05-07T00:00:23;13.40;99.90
38239;DHT22;24035;48.900;9.188;2023-05-07T00:02:49;13.50;99.90
38239;DHT22;24035;48.900;9.188;2023-05-07T00:05:15;13.60;99.90
38239;DHT22;24035;48.900;9.188;2023-05-07T00:07:41;13.70;99.90
38239;DHT22;24035;48.900;9.188;2023-05-07T00:10:07;13.70;99.90
38239;DHT22;24035;48.900;9.188;2023-05-07T00:12:33;13.80;8.00
38239;DHT22;24035;48.900;9.188;2023-05-07T00:15:01;13.80;1.00
38239;DHT22;24035;48.900;9.188;2023-05-07T00:17:26;13.80;1.00
38239;DHT22;24035;48.900;9.188;2023-05-07T00:19:52;13.80;1.00
38239;DHT22;24035;48.900;9.188;2023-05-07T00:22:18;13.80;1.00
38239;DHT22;24035;48.900;9.188;2023-05-07T00:24:43;13.80;99.90
38239;DHT22;24035;48.900;9.188;2023-05-07T00:27:09;13.80;1.00
38239;DHT22;24035;48.900;9.188;2023-05-07T00:29:35;13.80;99.90
38239;DHT22;24035;48.900;9.188;2023-05-07T00:32:02;13.80;99.90
38239;DHT22;24035;48.900;9.188;2023-05-07T00:34:27;13.70;1.00
38239;DHT22;24035;48.900;9.188;2023-05-07T00:36:53;13.80;1.00
38239;DHT22;24035;48.900;9.188;2023-05-07T00:39:19;13.80;99.90
38239;DHT22;24035;48.900;9.188;2023-05-07T00:41:45;13.80;1.00
38239;DHT22;24035;48.900;9.188;2023-05-07T00:44:11;13.70;1.00
38239;DHT22;24035;48.900;9.188;2023-05-07T00:46:37;13.60;1.00
38239;DHT22;24035;48.900;9.188;2023-05-07T00:49:03;13.40;1.00
38239;DHT22;24035;48.900;9.188;2023-05-07T00:51:30;13.40;1.00
38239;DHT22;24035;48.900;9.188;2023-05-07T00:53:56;13.30;1.00
38239;DHT22;24035;48.900;9.188;2023-05-07T00:56:23;13.20;99.90
38239;DHT22;24035;48.900;9.188;2023-05-07T00:58:49;13.10;99.90
38239;DHT22;24035;48.900;9.188;2023-05-07T01:01:15;13.00;99.90
38239;DHT22;24035;48.900;9.188;2023-05-07T01:03:42;12.90;1.00
38239;DHT22;24035;48.900;9.188;2023-05-07T01:06:09;12.90;1.00
38239;DHT22;24035;48.900;9.188;2023-05-07T01:08:35;12.90;32.70
38239;DHT22;24035;48.900;9.188;2023-05-07T01:11:02;12.80;1.00
38239;DHT22;24035;48.900;9.188;2023-05-07T01:13:29;12.70;50.60
38239;DHT22;24035;48.900;9.188;2023-05-07T01:15:55;12.70;1.00
38239;DHT22;24035;48.900;9.188;2023-05-07T01:18:21;12.60;99.90
38239;DHT22;24035;48.900;9.188;2023-05-07T01:20:47;12.60;1.00
38239;DHT22;24035;48.900;9.188;2023-05-07T01:23:13;12.70;99.90
38239;DHT22;24035;48.900;9.188;2023-05-07T01:25:39;12.60;99.90
38239;DHT22;24035;48.900;9.188;2023-05-07T01:28:05;12.60;1.00
38239;DHT22;24035;48.900;9.188;2023-05-07T01:30:32;12.60;99.90
38239;DHT22;24035;48.900;9.188;2023-05-07T01:33:11;12.50;99.90
38239;DHT22;24035;48.900;9.188;2023-05-07T01:35:40;12.50;1.00
38239;DHT22;24035;48.900;9.188;2023-05-07T01:38:07;12.40;1.00
38239;DHT22;24035;48.900;9.188;2023-05-07T01:40:34;12.40;1.00
38239;DHT22;24035;48.900;9.188;2023-05-07T01:43:03;12.50;7.10
38239;DHT22;24035;48.900;9.188;2023-05-07T01:45:30;12.50;34.20
38239;DHT22;24035;48.900;9.188;2023-05-07T01:47:58;12.50;45.90
38239;DHT22;24035;48.900;9.188;2023-05-07T01:50:25;12.60;1.00
38239;DHT22;24035;48.900;9.188;2023-05-07T01:52:51;12.60;1.00
38239;DHT22;24035;48.900;9.188;2023-05-07T01:55:17;12.60;1.00
38239;DHT22;24035;48.900;9.188;2023-05-07T01:57:43;12.70;99.90
38239;DHT22;24035;48.900;9.188;2023-05-07T02:00:09;12.70;99.90
38239;DHT22;24035;48.900;9.188;2023-05-07T02:02:35;12.70;77.00
38239;DHT22;24035;48.900;9.188;2023-05-07T02:05:01;12.70;1.00
38239;DHT22;24035;48.900;9.188;2023-05-07T02:07:27;12.60;1.00
38239;DHT22;24035;48.900;9.188;2023-05-07T02:09:53;12.50;1.00
38239;DHT22;24035;48.900;9.188;2023-05-07T02:12:21;12.50;62.90
38239;DHT22;24035;48.900;9.188;2023-05-07T02:14:47;12.40;99.90
38239;DHT22;24035;48.900;9.188;2023-05-07T02:17:12;12.40;99.90
38239;DHT22;24035;48.900;9.188;2023-05-07T02:19:38;12.50;99.90
38239;DHT22;24035;48.900;9.188;2023-05-07T02:22:04;12.50;99.90
38239;DHT22;24035;48.900;9.188;2023-05-07T02:24:29;12.50;99.90
38239;DHT22;24035;48.900;9.188;2023-05-07T02:26:55;12.50;99.90
38239;DHT22;24035;48.900;9.188;2023-05-07T02:29:21;12.40;99.90
38239;DHT22;24035;48.900;9.188;2023-05-07T02:31:47;12.40;1.00
38239;DHT22;24035;48.900;9.188;2023-05-07T02:34:16;12.30;1.00
38239;DHT22;24035;48.900;9.188;2023-05-07T02:36:42;12.40;1.00
38239;DHT22;24035;48.900;9.188;2023-05-07T02:39:08;12.30;1.00
38239;DHT22;24035;48.900;9.188;2023-05-07T02:41:34;12.40;1.00
38239;DHT22;24035;48.900;9.188;2023-05-07T02:44:00;12.50;1.00
38239;DHT22;24035;48.900;9.188;2023-05-07T02:46:25;12.40;99.90
38239;DHT22;24035;48.900;9.188;2023-05-07T02:48:51;12.40;99.90
38239;DHT22;24035;48.900;9.188;2023-05-07T02:51:21;12.30;99.90
38239;DHT22;24035;48.900;9.188;2023-05-07T02:53:47;12.20;1.00
38239;DHT22;24035;48.900;9.188;2023-05-07T02:56:13;12.20;1.00
38239;DHT22;24035;48.900;9.188;2023-05-07T02:58:38;12.20;1.00
38239;DHT22;24035;48.900;9.188;2023-05-07T03:01:05;12.10;1.00
38239;DHT22;24035;48.900;9.188;2023-05-07T03:03:31;11.90;1.00
38239;DHT22;24035;48.900;9.188;2023-05-07T03:05:57;11.90;1.00
38239;DHT22;24035;48.900;9.188;2023-05-07T03:08:23;11.70;1.00
38239;DHT22;24035;48.900;9.188;2023-05-07T03:10:49;11.60;99.90
38239;DHT22;24035;48.900;9.188;2023-05-07T03:13:15;11.50;99.90
38239;DHT22;24035;48.900;9.188;2023-05-07T03:15:41;11.50;1.00
38239;DHT22;24035;48.900;9.188;2023-05-07T03:18:06;11.60;1.00
38239;DHT22;24035;48.900;9.188;2023-05-07T03:20:32;11.50;1.00
38239;DHT22;24035;48.900;9.188;2023-05-07T03:22:58;11.40;1.00
38239;DHT22;24035;48.900;9.188;2023-05-07T03:25:23;11.40;92.10
38239;DHT22;24035;48.900;9.188;2023-05-07T03:27:49;11.30;99.90
38239;DHT22;24035;48.900;9.188;2023-05-07T03:30:15;11.20;99.90
38239;DHT22;24035;48.900;9.188;2023-05-07T03:32:40;11.20;99.90
38239;DHT22;24035;48.900;9.188;2023-05-07T03:35:06;11.20;1.00
38239;DHT22;24035;48.900;9.188;2023-05-07T03:37:32;11.30;8.30
38239;DHT22;24035;48.900;9.188;2023-05-07T03:39:58;11.30;1.00
38239;DHT22;24035;48.900;9.188;2023-05-07T03:42:24;11.20;1.00
38239;DHT22;24035;48.900;9.188;2023-05-07T03:44:49;11.20;1.00
38239;DHT22;24035;48.900;9.188;2023-05-07T03:47:15;11.30;99.90
38239;DHT22;24035;48.900;9.188;2023-05-07T03:49:41;11.50;99.90
38239;DHT22;24035;48.900;9.188;2023-05-07T03:52:06;11.40;1.00
38239;DHT22;24035;48.900;9.188;2023-05-07T03:54:32;11.40;1.00
38239;DHT22;24035;48.900;9.188;2023-05-07T03:56:58;11.40;1.00
38239;DHT22;24035;48.900;9.188;2023-05-07T03:59:24;11.40;1.00
38239;DHT22;24035;48.900;9.188;2023-05-07T04:01:49;11.40;1.00
38239;DHT22;24035;48.900;9.188;2023-05-07T04:04:15;11.50;1.00
38239;DHT22;24035;48.900;9.188;2023-05-07T04:06:41;11.50;99.90
38239;DHT22;24035;48.900;9.188;2023-05-07T04:09:07;11.50;99.90
38239;DHT22;24035;48.900;9.188;2023-05-07T04:11:33;11.50;55.00
38239;DHT22;24035;48.900;9.188;2023-05-07T04:13:59;11.50;76.90
38239;DHT22;24035;48.900;9.188;2023-05-07T04:16:25;11.50;99.90
38239;DHT22;24035;48.900;9.188;2023-05-07T04:18:50;11.50;99.90
38239;DHT22;24035;48.900;9.188;2023-05-07T04:21:17;11.50;99.90
38239;DHT22;24035;48.900;9.188;2023-05-07T04:23:43;11.60;1.00
38239;DHT22;24035;48.900;9.188;2023-05-07T04:26:09;11.70;99.90
38239;DHT22;24035;48.900;9.188;2023-05-07T04:28:35;11.80;1.20
38239;DHT22;24035;48.900;9.188;2023-05-07T04:31:01;11.90;1.00
38239;DHT22;24035;48.900;9.188;2023-05-07T04:33:27;12.10;1.00
38239;DHT22;24035;48.900;9.188;2023-05-07T04:35:53;12.20;99.90
38239;DHT22;24035;48.900;9.188;2023-05-07T04:38:19;12.40;1.00
38239;DHT22;24035;48.900;9.188;2023-05-07T04:40:45;12.60;1.00
38239;DHT22;24035;48.900;9.188;2023-05-07T04:43:12;12.70;99.90
38239;DHT22;24035;48.900;9.188;2023-05-07T04:45:38;12.70;1.00
38239;DHT22;24035;48.900;9.188;2023-05-07T04:48:07;12.90;1.00
38239;DHT22;24035;48.900;9.188;2023-05-07T04:50:33;13.00;1.00
38239;DHT22;24035;48.900;9.188;2023-05-07T04:52:58;13.30;1.00
38239;DHT22;24035;48.900;9.188;2023-05-07T04:55:24;13.60;1.00
38239;DHT22;24035;48.900;9.188;2023-05-07T04:57:50;14.10;1.00
38239;DHT22;24035;48.900;9.188;2023-05-07T05:00:16;14.90;99.90
38239;DHT22;24035;48.900;9.188;2023-05-07T05:02:42;15.50;1.00
38239;DHT22;24035;48.900;9.188;2023-05-07T05:05:08;15.70;99.90
38239;DHT22;24035;48.900;9.188;2023-05-07T05:07:33;15.60;1.00
38239;DHT22;24035;48.900;9.188;2023-05-07T05:09:59;15.40;1.00
38239;DHT22;24035;48.900;9.188;2023-05-07T05:12:25;15.20;99.90
38239;DHT22;24035;48.900;9.188;2023-05-07T05:14:51;15.20;99.90
38239;DHT22;24035;48.900;9.188;2023-05-07T05:17:16;15.00;99.90
38239;DHT22;24035;48.900;9.188;2023-05-07T05:19:42;14.80;99.90
38239;DHT22;24035;48.900;9.188;2023-05-07T05:22:08;14.70;99.90
38239;DHT22;24035;48.900;9.188;2023-05-07T05:24:33;14.70;99.90
38239;DHT22;24035;48.900;9.188;2023-05-07T05:26:59;14.60;1.00
38239;DHT22;24035;48.900;9.188;2023-05-07T05:29:26;14.60;1.00
38239;DHT22;24035;48.900;9.188;2023-05-07T05:31:52;14.50;1.00
38239;DHT22;24035;48.900;9.188;2023-05-07T05:34:18;14.60;1.00
38239;DHT22;24035;48.900;9.188;2023-05-07T05:36:45;14.80;1.00
38239;DHT22;24035;48.900;9.188;2023-05-07T05:39:11;15.00;1.00
38239;DHT22;24035;48.900;9.188;2023-05-07T05:41:36;15.30;99.90
38239;DHT22;24035;48.900;9.188;2023-05-07T05:44:02;15.60;99.90
38239;DHT22;24035;48.900;9.188;2023-05-07T05:46:28;15.70;1.00
38239;DHT22;24035;48.900;9.188;2023-05-07T05:48:54;15.90;1.00
38239;DHT22;24035;48.900;9.188;2023-05-07T05:51:21;16.10;1.00
38239;DHT22;24035;48.900;9.188;2023-05-07T05:53:47;16.60;99.90
38239;DHT22;24035;48.900;9.188;2023-05-07T05:56:12;16.90;99.90
38239;DHT22;24035;48.900;9.188;2023-05-07T05:58:38;17.00;38.40
38239;DHT22;24035;48.900;9.188;2023-05-07T06:01:04;17.30;1.00
38239;DHT22;24035;48.900;9.188;2023-05-07T06:03:30;18.00;1.00
38239;DHT22;24035;48.900;9.188;2023-05-07T06:05:57;18.80;1.00
38239;DHT22;24035;48.900;9.188;2023-05-07T06:08:23;19.90;1.00
38239;DHT22;24035;48.900;9.188;2023-05-07T06:10:49;21.10;99.90
38239;DHT22;24035;48.900;9.188;2023-05-07T06:13:15;21.60;99.90
38239;DHT22;24035;48.900;9.188;2023-05-07T06:15:41;22.20;99.90
38239;DHT22;24035;48.900;9.188;2023-05-07T06:18:07;21.80;99.90
38239;DHT22;24035;48.900;9.188;2023-05-07T06:20:33;21.00;99.90
38239;DHT22;24035;48.900;9.188;2023-05-07T06:22:59;22.00;99.90
38239;DHT22;24035;48.900;9.188;2023-05-07T06:25:24;22.40;99.90
38239;DHT22;24035;48.900;9.188;2023-05-07T06:27:53;22.50;99.90
38239;DHT22;24035;48.900;9.188;2023-05-07T06:30:19;22.00;99.90
38239;DHT22;24035;48.900;9.188;2023-05-07T06:32:45;21.40;99.90
38239;DHT22;24035;48.900;9.188;2023-05-07T06:35:10;20.80;99.90
38239;DHT22;24035;48.900;9.188;2023-05-07T06:37:36;20.60;99.90
38239;DHT22;24035;48.900;9.188;2023-05-07T06:40:07;20.60;99.90
38239;DHT22;24035;48.900;9.188;2023-05-07T06:42:33;20.70;99.90
38239;DHT22;24035;48.900;9.188;2023-05-07T06:44:59;21.30;99.90
38239;DHT22;24035;48.900;9.188;2023-05-07T06:47:25;22.20;99.90
38239;DHT22;24035;48.900;9.188;2023-05-07T06:49:50;23.00;99.90
38239;DHT22;24035;48.900;9.188;2023-05-07T06:52:16;23.90;99.90
38239;DHT22;24035;48.900;9.188;2023-05-07T06:54:42;24.80;99.90
38239;DHT22;24035;48.900;9.188;2023-05-07T06:57:07;25.20;99.90
38239;DHT22;24035;48.900;9.188;2023-05-07T06:59:33;25.00;99.90
38239;DHT22;24035;48.900;9.188;2023-05-07T07:01:59;25.30;99.90
38239;DHT22;24035;48.900;9.188;2023-05-07T07:04:25;25.50;99.90
38239;DHT22;24035;48.900;9.188;2023-05-07T07:06:52;25.70;99.90
38239;DHT22;24035;48.900;9.188;2023-05-07T07:09:18;26.60;99.90
38239;DHT22;24035;48.900;9.188;2023-05-07T07:11:43;27.20;99.90
38239;DHT22;24035;48.900;9.188;2023-05-07T07:14:09;27.30;99.90
38239;DHT22;24035;48.900;9.188;2023-05-07T07:16:35;27.00;99.90
38239;DHT22;24035;48.900;9.188;2023-05-07T07:19:00;26.60;99.90
38239;DHT22;24035;48.900;9.188;2023-05-07T07:21:26;26.40;99.90
38239;DHT22;24035;48.900;9.188;2023-05-07T07:23:52;26.10;99.90
38239;DHT22;24035;48.900;9.188;2023-05-07T07:26:17;26.10;99.90
38239;DHT22;24035;48.900;9.188;2023-05-07T07:28:47;26.20;99.90
38239;DHT22;24035;48.900;9.188;2023-05-07T07:31:13;25.40;99.90
38239;DHT22;24035;48.900;9.188;2023-05-07T07:33:39;24.50;99.90
38239;DHT22;24035;48.900;9.188;2023-05-07T07:36:06;24.10;99.90
38239;DHT22;24035;48.900;9.188;2023-05-07T07:38:32;24.20;99.90
38239;DHT22;24035;48.900;9.188;2023-05-07T07:40:58;24.10;99.90
38239;DHT22;24035;48.900;9.188;2023-05-07T07:43:23;24.20;99.90
38239;DHT22;24035;48.900;9.188;2023-05-07T07:45:49;24.60;99.90
38239;DHT22;24035;48.900;9.188;2023-05-07T07:48:15;24.10;99.90
38239;DHT22;24035;48.900;9.188;2023-05-07T07:50:41;23.20;99.90
38239;DHT22;24035;48.900;9.188;2023-05-07T07:53:06;22.20;99.90
38239;DHT22;24035;48.900;9.188;2023-05-07T07:55:32;22.00;99.90
38239;DHT22;24035;48.900;9.188;2023-05-07T07:58:03;21.70;99.90
38239;DHT22;24035;48.900;9.188;2023-05-07T08:00:28;21.50;99.90
38239;DHT22;24035;48.900;9.188;2023-05-07T08:02:54;21.40;99.90
38239;DHT22;24035;48.900;9.188;2023-05-07T08:05:20;21.30;99.90
38239;DHT22;24035;48.900;9.188;2023-05-07T08:07:46;21.10;99.90
38239;DHT22;24035;48.900;9.188;2023-05-07T08:10:17;21.10;99.90
38239;DHT22;24035;48.900;9.188;2023-05-07T08:12:50;21.10;99.90
38239;DHT22;24035;48.900;9.188;2023-05-07T08:15:16;21.00;99.90
38239;DHT22;24035;48.900;9.188;2023-05-07T08:17:43;21.00;99.90
38239;DHT22;24035;48.900;9.188;2023-05-07T08:20:09;21.20;99.90
38239;DHT22;24035;48.900;9.188;2023-05-07T08:22:35;21.30;99.90
38239;DHT22;24035;48.900;9.188;2023-05-07T08:25:02;21.20;99.90
38239;DHT22;24035;48.900;9.188;2023-05-07T08:27:27;21.30;99.90
38239;DHT22;24035;48.900;9.188;2023-05-07T08:29:53;21.20;99.90
38239;DHT22;24035;48.900;9.188;2023-05-07T08:32:20;21.20;99.90
38239;DHT22;24035;48.900;9.188;2023-05-07T08:34:46;21.30;99.90
38239;DHT22;24035;48.900;9.188;2023-05-07T08:37:12;21.40;99.90
38239;DHT22;24035;48.900;9.188;2023-05-07T08:39:37;21.70;99.90
38239;DHT22;24035;48.900;9.188;2023-05-07T08:42:04;22.00;99.90
38239;DHT22;24035;48.900;9.188;2023-05-07T08:44:33;22.40;99.90
38239;DHT22;24035;48.900;9.188;2023-05-07T08:47:01;22.80;99.90
38239;DHT22;24035;48.900;9.188;2023-05-07T08:49:28;23.30;99.90
38239;DHT22;24035;48.900;9.188;2023-05-07T08:51:54;24.00;99.90
38239;DHT22;24035;48.900;9.188;2023-05-07T08:54:21;25.00;99.90
38239;DHT22;24035;48.900;9.188;2023-05-07T08:56:47;25.70;99.90
38239;DHT22;24035;48.900;9.188;2023-05-07T08:59:13;26.00;99.90
38239;DHT22;24035;48.900;9.188;2023-05-07T09:01:39;25.20;99.90
38239;DHT22;24035;48.900;9.188;2023-05-07T09:04:05;25.50;99.90
38239;DHT22;24035;48.900;9.188;2023-05-07T09:06:32;26.20;99.90
38239;DHT22;24035;48.900;9.188;2023-05-07T09:08:58;26.30;99.90
38239;DHT22;24035;48.900;9.188;2023-05-07T09:11:27;26.10;99.90
38239;DHT22;24035;48.900;9.188;2023-05-07T09:13:56;25.30;99.90
38239;DHT22;24035;48.900;9.188;2023-05-07T09:16:23;24.20;99.90
38239;DHT22;24035;48.900;9.188;2023-05-07T09:18:54;24.50;99.90
38239;DHT22;24035;48.900;9.188;2023-05-07T09:21:20;24.30;99.90
38239;DHT22;24035;48.900;9.188;2023-05-07T09:23:50;24.60;99.90
38239;DHT22;24035;48.900;9.188;2023-05-07T09:26:15;25.00;99.90
38239;DHT22;24035;48.900;9.188;2023-05-07T09:28:41;25.40;99.90
38239;DHT22;24035;48.900;9.188;2023-05-07T09:31:08;25.80;99.90
38239;DHT22;24035;48.900;9.188;2023-05-07T09:33:34;25.90;99.90
38239;DHT22;24035;48.900;9.188;2023-05-07T09:36:08;26.30;99.90
38239;DHT22;24035;48.900;9.188;2023-05-07T09:38:36;26.30;99.90
38239;DHT22;24035;48.900;9.188;2023-05-07T09:41:07;26.10;99.90
38239;DHT22;24035;48.900;9.188;2023-05-07T09:43:35;25.60;99.90
38239;DHT22;24035;48.900;9.188;2023-05-07T09:46:04;25.20;99.90
38239;DHT22;24035;48.900;9.188;2023-05-07T09:48:32;25.00;99.90
38239;DHT22;24035;48.900;9.188;2023-05-07T09:51:02;25.00;99.90
38239;DHT22;24035;48.900;9.188;2023-05-07T09:53:29;24.70;99.90
38239;DHT22;24035;48.900;9.188;2023-05-07T09:55:57;24.40;99.90
38239;DHT22;24035;48.900;9.188;2023-05-07T09:58:23;24.00;99.90
38239;DHT22;24035;48.900;9.188;2023-05-07T10:00:51;23.90;99.90
38239;DHT22;24035;48.900;9.188;2023-05-07T10:03:19;23.70;99.90
38239;DHT22;24035;48.900;9.188;2023-05-07T10:05:46;23.60;99.90
38239;DHT22;24035;48.900;9.188;2023-05-07T10:08:13;23.80;99.90
38239;DHT22;24035;48.900;9.188;2023-05-07T10:10:40;24.00;99.90
38239;DHT22;24035;48.900;9.188;2023-05-07T10:13:06;24.10;99.90
38239;DHT22;24035;48.900;9.188;2023-05-07T10:15:36;24.20;99.90
38239;DHT22;24035;48.900;9.188;2023-05-07T10:18:03;24.10;99.90
38239;DHT22;24035;48.900;9.188;2023-05-07T10:20:31;24.10;99.90
38239;DHT22;24035;48.900;9.188;2023-05-07T10:22:58;24.20;99.90
38239;DHT22;24035;48.900;9.188;2023-05-07T10:25:31;24.40;99.90
38239;DHT22;24035;48.900;9.188;2023-05-07T10:28:04;24.50;99.90
38239;DHT22;24035;48.900;9.188;2023-05-07T10:33:10;24.10;99.90
38239;DHT22;24035;48.900;9.188;2023-05-07T10:35:42;24.30;99.90
38239;DHT22;24035;48.900;9.188;2023-05-07T10:38:08;24.40;99.90
38239;DHT22;24035;48.900;9.188;2023-05-07T10:40:34;24.70;99.90
38239;DHT22;24035;48.900;9.188;2023-05-07T10:43:02;24.60;99.90
38239;DHT22;24035;48.900;9.188;2023-05-07T10:45:30;24.50;99.90
38239;DHT22;24035;48.900;9.188;2023-05-07T10:50:35;24.20;99.90
38239;DHT22;24035;48.900;9.188;2023-05-07T10:53:28;24.20;99.90
38239;DHT22;24035;48.900;9.188;2023-05-07T10:58:42;24.60;99.90
38239;DHT22;24035;48.900;9.188;2023-05-07T11:01:08;24.80;99.90
38239;DHT22;24035;48.900;9.188;2023-05-07T11:03:33;24.60;99.90
38239;DHT22;24035;48.900;9.188;2023-05-07T11:06:14;24.70;99.90
38239;DHT22;24035;48.900;9.188;2023-05-07T11:11:18;24.90;99.90
38239;DHT22;24035;48.900;9.188;2023-05-07T11:13:46;25.10;99.90
38239;DHT22;24035;48.900;9.188;2023-05-07T11:16:19;25.10;99.90
38239;DHT22;24035;48.900;9.188;2023-05-07T11:18:47;25.10;99.90
38239;DHT22;24035;48.900;9.188;2023-05-07T11:21:35;25.20;99.90
38239;DHT22;24035;48.900;9.188;2023-05-07T11:24:01;25.20;99.90
38239;DHT22;24035;48.900;9.188;2023-05-07T11:26:29;25.20;99.90
38239;DHT22;24035;48.900;9.188;2023-05-07T11:28:56;25.20;99.90
38239;DHT22;24035;48.900;9.188;2023-05-07T11:31:25;25.20;99.90
38239;DHT22;24035;48.900;9.188;2023-05-07T11:33:52;25.10;99.90
38239;DHT22;24035;48.900;9.188;2023-05-07T11:36:18;25.40;99.90
38239;DHT22;24035;48.900;9.188;2023-05-07T11:38:45;25.60;99.90
38239;DHT22;24035;48.900;9.188;2023-05-07T11:41:11;25.70;99.90
38239;DHT22;24035;48.900;9.188;2023-05-07T11:43:36;25.70;99.90
38239;DHT22;24035;48.900;9.188;2023-05-07T11:46:09;26.10;99.90
38239;DHT22;24035;48.900;9.188;2023-05-07T11:48:36;26.20;99.90
38239;DHT22;24035;48.900;9.188;2023-05-07T11:51:03;26.20;99.90
38239;DHT22;24035;48.900;9.188;2023-05-07T11:53:41;26.20;99.90
38239;DHT22;24035;48.900;9.188;2023-05-07T11:56:10;26.00;99.90
38239;DHT22;24035;48.900;9.188;2023-05-07T11:58:37;25.80;99.90
38239;DHT22;24035;48.900;9.188;2023-05-07T12:01:03;25.80;99.90
38239;DHT22;24035;48.900;9.188;2023-05-07T12:03:29;25.10;99.90
38239;DHT22;24035;48.900;9.188;2023-05-07T12:05:54;25.20;99.90
38239;DHT22;24035;48.900;9.188;2023-05-07T12:08:21;25.50;99.90
38239;DHT22;24035;48.900;9.188;2023-05-07T12:10:48;25.90;99.90
38239;DHT22;24035;48.900;9.188;2023-05-07T12:13:19;26.20;99.90
38239;DHT22;24035;48.900;9.188;2023-05-07T12:15:46;26.60;99.90
38239;DHT22;24035;48.900;9.188;2023-05-07T12:18:12;26.90;99.90
38239;DHT22;24035;48.900;9.188;2023-05-07T12:20:39;27.20;99.90
38239;DHT22;24035;48.900;9.188;2023-05-07T12:23:05;27.40;99.90
38239;DHT22;24035;48.900;9.188;2023-05-07T12:25:41;27.50;99.90
38239;DHT22;24035;48.900;9.188;2023-05-07T12:28:16;27.30;99.90
38239;DHT22;24035;48.900;9.188;2023-05-07T12:30:43;26.80;99.90
38239;DHT22;24035;48.900;9.188;2023-05-07T12:33:10;26.40;99.90
38239;DHT22;24035;48.900;9.188;2023-05-07T12:35:39;26.10;99.90
38239;DHT22;24035;48.900;9.188;2023-05-07T12:38:08;26.10;99.90
38239;DHT22;24035;48.900;9.188;2023-05-07T12:40:42;26.10;99.90
38239;DHT22;24035;48.900;9.188;2023-05-07T12:43:18;26.10;99.90
38239;DHT22;24035;48.900;9.188;2023-05-07T12:45:46;26.10;99.90
38239;DHT22;24035;48.900;9.188;2023-05-07T12:48:13;26.20;99.90
38239;DHT22;24035;48.900;9.188;2023-05-07T12:50:39;26.40;99.90
38239;DHT22;24035;48.900;9.188;2023-05-07T12:53:05;26.30;99.90
38239;DHT22;24035;48.900;9.188;2023-05-07T12:55:32;26.50;99.90
38239;DHT22;24035;48.900;9.188;2023-05-07T12:58:00;26.60;99.90
38239;DHT22;24035;48.900;9.188;2023-05-07T13:00:37;26.60;99.90
38239;DHT22;24035;48.900;9.188;2023-05-07T13:03:03;26.60;99.90
38239;DHT22;24035;48.900;9.188;2023-05-07T13:05:29;26.40;99.90
38239;DHT22;24035;48.900;9.188;2023-05-07T13:07:56;25.80;99.90
38239;DHT22;24035;48.900;9.188;2023-05-07T13:10:22;25.20;99.90
38239;DHT22;24035;48.900;9.188;2023-05-07T13:12:49;24.30;99.90
38239;DHT22;24035;48.900;9.188;2023-05-07T13:15:15;23.60;99.90
38239;DHT22;24035;48.900;9.188;2023-05-07T13:17:41;23.40;99.90
38239;DHT22;24035;48.900;9.188;2023-05-07T13:20:08;23.00;99.90
38239;DHT22;24035;48.900;9.188;2023-05-07T13:22:34;22.80;99.90
38239;DHT22;24035;48.900;9.188;2023-05-07T13:25:00;22.30;99.90
38239;DHT22;24035;48.900;9.188;2023-05-07T13:27:26;21.80;99.90
38239;DHT22;24035;48.900;9.188;2023-05-07T13:29:52;21.70;99.90
38239;DHT22;24035;48.900;9.188;2023-05-07T13:32:17;21.50;99.90
38239;DHT22;24035;48.900;9.188;2023-05-07T13:34:43;21.50;99.90
38239;DHT22;24035;48.900;9.188;2023-05-07T13:37:09;21.50;99.90
38239;DHT22;24035;48.900;9.188;2023-05-07T13:39:35;21.40;99.90
38239;DHT22;24035;48.900;9.188;2023-05-07T13:42:00;21.20;99.90
38239;DHT22;24035;48.900;9.188;2023-05-07T13:44:26;20.90;99.90
38239;DHT22;24035;48.900;9.188;2023-05-07T13:46:52;20.70;99.90
38239;DHT22;24035;48.900;9.188;2023-05-07T13:49:17;20.40;99.90
38239;DHT22;24035;48.900;9.188;2023-05-07T13:51:43;20.20;99.90
38239;DHT22;24035;48.900;9.188;2023-05-07T13:54:09;19.90;99.90
38239;DHT22;24035;48.900;9.188;2023-05-07T13:56:34;19.60;1.00
38239;DHT22;24035;48.900;9.188;2023-05-07T13:59:00;19.50;1.00
38239;DHT22;24035;48.900;9.188;2023-05-07T14:01:27;19.60;1.00
38239;DHT22;24035;48.900;9.188;2023-05-07T14:03:52;19.60;99.90
38239;DHT22;24035;48.900;9.188;2023-05-07T14:06:18;19.50;99.90
38239;DHT22;24035;48.900;9.188;2023-05-07T14:08:44;19.60;99.90
38239;DHT22;24035;48.900;9.188;2023-05-07T14:11:09;19.70;99.90
38239;DHT22;24035;48.900;9.188;2023-05-07T14:13:35;19.80;99.90
38239;DHT22;24035;48.900;9.188;2023-05-07T14:16:01;19.80;99.90
38239;DHT22;24035;48.900;9.188;2023-05-07T14:18:27;19.80;99.90
38239;DHT22;24035;48.900;9.188;2023-05-07T14:20:54;19.90;99.90
38239;DHT22;24035;48.900;9.188;2023-05-07T14:23:20;19.90;99.90
38239;DHT22;24035;48.900;9.188;2023-05-07T14:25:50;19.70;99.90
38239;DHT22;24035;48.900;9.188;2023-05-07T14:28:16;19.40;1.00
38239;DHT22;24035;48.900;9.188;2023-05-07T14:30:42;18.90;1.00
38239;DHT22;24035;48.900;9.188;2023-05-07T14:33:08;18.60;1.00
38239;DHT22;24035;48.900;9.188;2023-05-07T14:35:33;18.20;99.90
38239;DHT22;24035;48.900;9.188;2023-05-07T14:37:59;17.90;1.00
38239;DHT22;24035;48.900;9.188;2023-05-07T14:40:25;17.60;1.00
38239;DHT22;24035;48.900;9.188;2023-05-07T14:42:51;17.30;99.90
38239;DHT22;24035;48.900;9.188;2023-05-07T14:45:16;17.20;99.90
38239;DHT22;24035;48.900;9.188;2023-05-07T14:47:42;17.10;1.00
38239;DHT22;24035;48.900;9.188;2023-05-07T14:50:08;17.00;1.00
38239;DHT22;24035;48.900;9.188;2023-05-07T14:52:34;16.90;1.00
38239;DHT22;24035;48.900;9.188;2023-05-07T14:55:00;16.90;1.00
38239;DHT22;24035;48.900;9.188;2023-05-07T14:57:25;16.90;78.30
38239;DHT22;24035;48.900;9.188;2023-05-07T14:59:51;16.80;1.00
38239;DHT22;24035;48.900;9.188;2023-05-07T15:02:17;16.70;1.00
38239;DHT22;24035;48.900;9.188;2023-05-07T15:04:43;16.70;1.00
38239;DHT22;24035;48.900;9.188;2023-05-07T15:07:13;16.60;99.90
38239;DHT22;24035;48.900;9.188;2023-05-07T15:09:42;16.70;1.00
38239;DHT22;24035;48.900;9.188;2023-05-07T15:12:08;16.70;17.00
38239;DHT22;24035;48.900;9.188;2023-05-07T15:14:34;16.90;1.00
38239;DHT22;24035;48.900;9.188;2023-05-07T15:17:00;17.00;1.00
38239;DHT22;24035;48.900;9.188;2023-05-07T15:19:25;17.00;1.00
38239;DHT22;24035;48.900;9.188;2023-05-07T15:21:55;17.10;39.30
38239;DHT22;24035;48.900;9.188;2023-05-07T15:24:22;17.10;41.60
38239;DHT22;24035;48.900;9.188;2023-05-07T15:26:48;17.20;34.80
38239;DHT22;24035;48.900;9.188;2023-05-07T15:29:14;17.10;1.00
38239;DHT22;24035;48.900;9.188;2023-05-07T15:31:39;17.00;99.90
38239;DHT22;24035;48.900;9.188;2023-05-07T15:34:05;17.00;99.90
38239;DHT22;24035;48.900;9.188;2023-05-07T15:36:31;16.80;33.00
38239;DHT22;24035;48.900;9.188;2023-05-07T15:38:57;16.60;99.90
38239;DHT22;24035;48.900;9.188;2023-05-07T15:41:24;16.60;1.00